Time;durP1;ratioP1;P1;durP2;ratioP2;P2;SDS_P1;SDS_P2;PMS_P1;PMS_P2;Temp;Humidity;BMP_temperature;BMP_pressure;BME280_temperature;BME280_humidity;BME280_pressure;Samples;Min_cycle;Max_cycle;Signal;HPM_P1;HPM_P2
2022/08/20 00:02:15;;;;;;;0.97;0.60;;;;;;;24.50;100.00;94978.41;5094669;28;20452;-56
2022/08/20 00:04:44;;;;;;;1.17;0.73;;;;;;;24.25;100.00;94980.75;5094520;28;20476;-56
2022/08/20 00:07:13;;;;;;;0.90;0.83;;;;;;;24.07;100.00;94973.44;5094469;28;20492;-56
2022/08/20 00:09:42;;;;;;;0.60;0.60;;;;;;;24.42;100.00;94969.38;5094401;28;20468;-56
2022/08/20 00:12:12;;;;;;;0.90;0.90;;;;;;;24.73;100.00;94973.69;5094513;28;20928;-56
2022/08/20 00:14:40;;;;;;;0.50;0.40;;;;;;;24.88;100.00;94974.69;5094685;28;20483;-56
2022/08/20 00:17:10;;;;;;;0.60;0.40;;;;;;;24.96;100.00;94979.06;5094578;28;20511;-56
2022/08/20 00:19:39;;;;;;;0.60;0.60;;;;;;;24.97;100.00;94984.09;5094175;28;20472;-56
2022/08/20 00:22:07;;;;;;;0.50;0.43;;;;;;;24.82;100.00;94978.88;5094527;28;20425;-56
2022/08/20 00:24:36;;;;;;;0.50;0.37;;;;;;;25.00;100.00;94983.38;5094100;28;20515;-56
2022/08/20 00:27:04;;;;;;;0.70;0.30;;;;;;;25.01;100.00;94982.22;5094044;28;20471;-56
2022/08/20 00:29:33;;;;;;;0.60;0.40;;;;;;;24.80;100.00;94987.38;5094038;28;20460;-56
2022/08/20 00:32:01;;;;;;;1.17;1.07;;;;;;;24.90;100.00;94977.81;5094318;28;20504;-56
2022/08/20 00:34:31;;;;;;;7.20;1.00;;;;;;;24.73;100.00;94979.13;5093955;28;20479;-56
2022/08/20 00:36:59;;;;;;;0.90;0.50;;;;;;;24.65;100.00;94991.00;5094007;28;20476;-57
2022/08/20 00:39:28;;;;;;;0.97;0.97;;;;;;;24.80;100.00;94984.66;5093837;28;20592;-57
2022/08/20 00:41:56;;;;;;;1.03;0.50;;;;;;;24.80;100.00;94987.38;5093865;28;20917;-57
2022/08/20 00:44:25;;;;;;;0.40;0.40;;;;;;;24.77;100.00;94996.19;5093866;28;20432;-57
2022/08/20 00:46:54;;;;;;;0.40;0.30;;;;;;;24.66;100.00;94965.47;5093367;28;20472;-57
2022/08/20 00:49:26;;;;;;;0.47;0.37;;;;;;;24.82;100.00;94993.19;5093710;28;20467;-57
2022/08/20 00:52:01;;;;;;;0.50;0.50;;;;;;;24.91;100.00;94988.28;5093534;28;20435;-57
2022/08/20 00:54:35;;;;;;;0.70;0.40;;;;;;;24.81;100.00;94986.22;5093891;28;20485;-57
2022/08/20 00:57:08;;;;;;;0.60;0.50;;;;;;;24.68;100.00;94987.56;5093530;28;20467;-56
2022/08/20 00:59:40;;;;;;;0.60;0.57;;;;;;;24.66;100.00;94992.56;5093895;28;20495;-57
2022/08/20 01:02:16;;;;;;;0.80;0.80;;;;;;;24.64;100.00;94992.16;5093384;28;20452;-57
2022/08/20 01:04:47;;;;;;;0.87;0.50;;;;;;;24.39;100.00;94937.59;5093138;28;20460;-57
2022/08/20 01:07:19;;;;;;;0.70;0.40;;;;;;;24.23;100.00;94983.03;5092873;28;20566;-57
2022/08/20 01:09:48;;;;;;;0.50;0.50;;;;;;;24.48;100.00;94978.78;5093258;28;20432;-56
2022/08/20 01:12:27;;;;;;;0.50;0.50;;;;;;;24.61;100.00;94990.19;5093152;28;20486;-56
2022/08/20 01:14:58;;;;;;;0.70;0.67;;;;;;;24.64;100.00;94990.22;5093234;28;20424;-56
2022/08/20 01:17:31;;;;;;;0.40;0.40;;;;;;;24.64;100.00;94997.59;5093367;28;20519;-57
2022/08/20 01:20:04;;;;;;;0.57;0.57;;;;;;;24.52;100.00;95001.28;5093045;28;20521;-57
2022/08/20 01:25:30;;;;;;;0.50;0.40;;;;;;;24.35;100.00;95001.00;5059109;28;20436;-56
2022/08/20 01:28:01;;;;;;;0.43;0.40;;;;;;;24.33;100.00;94992.47;5093096;28;20542;-57
2022/08/20 01:30:31;;;;;;;0.40;0.30;;;;;;;24.09;100.00;94979.31;5092992;28;20449;-56
2022/08/20 01:33:01;;;;;;;0.40;0.40;;;;;;;24.10;100.00;95003.34;5092914;28;20473;-56
2022/08/20 01:35:29;;;;;;;0.50;0.30;;;;;;;24.12;100.00;95002.97;5093051;28;20424;-56
2022/08/20 01:37:58;;;;;;;0.60;0.40;;;;;;;23.98;100.00;94998.06;5093033;28;20448;-56
2022/08/20 01:40:44;;;;;;;1.80;0.73;;;;;;;23.63;100.00;94997.47;5092676;28;20853;-56
2022/08/20 01:43:14;;;;;;;1.33;1.23;;;;;;;23.38;100.00;94996.22;5092572;28;20483;-56
2022/08/20 01:45:44;;;;;;;0.70;0.60;;;;;;;23.65;100.00;94987.84;5092856;28;20433;-56
2022/08/20 01:48:17;;;;;;;1.10;0.60;;;;;;;23.80;100.00;94981.53;5092322;28;20464;-56
2022/08/20 01:50:55;;;;;;;0.50;0.33;;;;;;;23.89;100.00;94978.56;5092372;28;20495;-56
2022/08/20 01:53:32;;;;;;;0.50;0.50;;;;;;;23.86;100.00;94977.38;5092734;28;20506;-56
2022/08/20 01:56:01;;;;;;;0.50;0.43;;;;;;;23.61;100.00;94941.00;5092239;28;20467;-56
2022/08/20 01:58:32;;;;;;;0.40;0.20;;;;;;;23.74;100.00;94966.72;5092559;28;20506;-56
2022/08/20 02:01:00;;;;;;;1.23;0.40;;;;;;;23.94;100.00;94981.75;5092308;28;20475;-56
2022/08/20 02:03:29;;;;;;;3.60;0.40;;;;;;;23.55;100.00;94909.97;5092365;28;20979;-57
2022/08/20 02:06:05;;;;;;;0.80;0.50;;;;;;;24.02;100.00;94983.44;5092455;28;20429;-56
2022/08/20 02:08:33;;;;;;;0.40;0.30;;;;;;;24.13;100.00;94978.25;5092533;28;20626;-56
2022/08/20 02:11:02;;;;;;;0.40;0.20;;;;;;;24.11;100.00;94977.81;5092140;28;20519;-57
2022/08/20 02:13:32;;;;;;;0.50;0.30;;;;;;;23.83;100.00;94928.59;5092151;28;20483;-57
2022/08/20 02:16:00;;;;;;;0.80;0.40;;;;;;;24.17;100.00;94973.66;5092539;28;20467;-57
2022/08/20 02:18:28;;;;;;;0.40;0.30;;;;;;;24.22;100.00;94981.47;5091935;28;21046;-57
2022/08/20 02:20:57;;;;;;;0.50;0.30;;;;;;;24.23;100.00;94983.03;5092243;28;20470;-56
2022/08/20 02:23:25;;;;;;;0.50;0.30;;;;;;;24.09;100.00;94982.81;5091685;28;20496;-57
2022/08/20 02:25:54;;;;;;;0.50;0.40;;;;;;;24.07;100.00;94982.34;5092300;28;20504;-57
2022/08/20 02:28:22;;;;;;;0.77;0.77;;;;;;;23.73;100.00;94981.41;5092203;28;20914;-57
2022/08/20 02:30:54;;;;;;;0.70;0.63;;;;;;;23.73;100.00;94992.22;5092065;28;20452;-57
2022/08/20 02:33:23;;;;;;;0.60;0.60;;;;;;;24.03;100.00;94989.66;5091867;28;20436;-57
2022/08/20 02:35:55;;;;;;;0.40;0.30;;;;;;;24.06;100.00;94961.84;5091875;28;20434;-57
2022/08/20 02:38:24;;;;;;;0.40;0.30;;;;;;;24.14;100.00;94976.28;5091758;28;20416;-56
2022/08/20 02:40:52;;;;;;;0.50;0.50;;;;;;;23.79;100.00;94973.75;5092100;28;20491;-57
2022/08/20 02:43:21;;;;;;;0.70;0.70;;;;;;;23.57;100.00;94975.31;5091750;28;20463;-57
2022/08/20 02:45:50;;;;;;;0.50;0.50;;;;;;;23.54;100.00;94967.94;5092105;28;20495;-57
2022/08/20 02:48:21;;;;;;;0.40;0.30;;;;;;;23.38;100.00;94940.19;5091632;28;20476;-57
2022/08/20 02:50:53;;;;;;;0.80;0.80;;;;;;;23.75;100.00;94968.31;5091748;28;20892;-57
2022/08/20 02:53:21;;;;;;;0.50;0.30;;;;;;;23.81;100.00;94972.25;5091896;28;20456;-57
2022/08/20 02:55:50;;;;;;;0.43;0.30;;;;;;;23.82;100.00;94984.66;5091922;28;20452;-57
2022/08/20 02:58:20;;;;;;;0.40;0.30;;;;;;;23.84;100.00;94973.47;5091619;28;20432;-57
2022/08/20 03:00:49;;;;;;;0.70;0.60;;;;;;;23.80;100.00;94983.47;5091941;28;20510;-57
2022/08/20 03:03:21;;;;;;;0.60;0.30;;;;;;;23.78;100.00;94972.97;5091556;28;20984;-57
2022/08/20 03:05:53;;;;;;;0.53;0.30;;;;;;;23.87;100.00;94973.53;5091623;28;20477;-57
2022/08/20 03:08:23;;;;;;;0.50;0.33;;;;;;;23.38;100.00;94905.03;5091919;28;20503;-57
2022/08/20 03:10:52;;;;;;;0.80;0.70;;;;;;;23.55;100.00;94988.44;5091744;28;20448;-57
2022/08/20 03:13:21;;;;;;;0.70;0.70;;;;;;;23.43;100.00;94983.16;5091469;28;20519;-57
2022/08/20 03:15:51;;;;;;;0.90;0.90;;;;;;;23.73;100.00;94981.41;5091502;28;20523;-57
2022/08/20 03:18:30;;;;;;;0.60;0.40;;;;;;;23.90;100.00;94986.34;5091354;28;20987;-57
2022/08/20 03:20:58;;;;;;;0.77;0.50;;;;;;;23.97;100.00;94989.16;5091522;28;20467;-57
2022/08/20 03:23:27;;;;;;;0.40;0.30;;;;;;;23.95;100.00;94994.16;5091483;28;20516;-57
2022/08/20 03:25:56;;;;;;;2.13;0.80;;;;;;;23.06;100.00;95001.75;5091916;28;20420;-56
2022/08/20 03:28:24;;;;;;;1.53;1.43;;;;;;;22.57;100.00;94995.25;5091338;28;20562;-56
2022/08/20 03:30:55;;;;;;;0.83;0.80;;;;;;;22.70;100.00;94975.91;5091597;28;20423;-56
2022/08/20 03:33:23;;;;;;;0.70;0.60;;;;;;;22.42;100.00;94945.53;5091278;28;20433;-56
2022/08/20 03:35:54;;;;;;;0.60;0.50;;;;;;;22.97;100.00;95008.50;5094777;28;20507;-56
2022/08/20 03:38:23;;;;;;;0.40;0.30;;;;;;;22.26;100.00;94907.03;5094667;28;20456;-56
2022/08/20 03:41:00;;;;;;;0.50;0.30;;;;;;;23.07;100.00;95018.75;5094710;28;20432;-57
2022/08/20 03:43:29;;;;;;;2.07;1.97;;;;;;;23.13;100.00;95017.31;5094727;28;21104;-57
2022/08/20 03:45:58;;;;;;;0.97;0.50;;;;;;;23.11;100.00;95020.38;5094764;28;20466;-57
2022/08/20 03:48:27;;;;;;;0.60;0.60;;;;;;;23.13;100.00;95017.31;5094542;28;20570;-57
2022/08/20 03:50:59;;;;;;;0.40;0.30;;;;;;;23.08;100.00;95020.31;5094610;28;20507;-57
2022/08/20 03:53:30;;;;;;;0.50;0.40;;;;;;;23.17;100.00;95026.31;5094544;28;20916;-59
2022/08/20 03:56:03;;;;;;;0.50;0.47;;;;;;;22.82;100.00;95023.63;5094737;28;20431;-59
2022/08/20 03:58:33;;;;;;;0.60;0.60;;;;;;;22.31;100.00;95027.47;5094377;28;20519;-59
2022/08/20 04:01:05;;;;;;;0.67;0.60;;;;;;;22.29;100.00;95032.44;5094339;28;20416;-59
2022/08/20 04:03:34;;;;;;;0.97;0.90;;;;;;;22.11;100.00;95023.91;5094469;28;20575;-58
2022/08/20 04:06:04;;;;;;;0.57;0.50;;;;;;;22.52;100.00;95014.44;5094555;28;20456;-59
2022/08/20 04:08:33;;;;;;;0.40;0.30;;;;;;;22.97;100.00;95009.25;5094655;28;20499;-59
2022/08/20 04:11:01;;;;;;;0.40;0.40;;;;;;;22.42;100.00;94874.53;5094379;28;20903;-58
2022/08/20 04:13:30;;;;;;;0.93;0.83;;;;;;;23.13;100.00;94985.66;5094528;28;20456;-59
2022/08/20 04:16:02;;;;;;;0.57;0.40;;;;;;;23.49;100.00;95019.63;5094023;28;20428;-59
2022/08/20 04:18:31;;;;;;;4.67;0.40;;;;;;;23.34;100.00;94977.19;5093914;28;20533;-58
2022/08/20 04:21:00;;;;;;;0.47;0.30;;;;;;;19.85;100.00;94447.19;5093878;28;20844;-58
2022/08/20 04:23:30;;;;;;;0.50;0.30;;;;;;;23.49;100.00;94975.53;5093960;28;20479;-59
2022/08/20 04:26:00;;;;;;;0.70;0.63;;;;;;;23.21;100.00;94943.31;5093886;28;20462;-59
2022/08/20 04:28:28;;;;;;;0.53;0.50;;;;;;;21.84;100.00;94874.41;5094159;28;20460;-60
2022/08/20 04:30:59;;;;;;;1.07;1.07;;;;;;;22.95;100.00;95011.53;5093989;28;20432;-59
2022/08/20 04:33:30;;;;;;;2.00;1.90;;;;;;;21.99;100.00;95013.19;5093615;28;20456;-59
2022/08/20 04:36:04;;;;;;;1.30;1.20;;;;;;;21.16;100.00;94997.09;5093533;28;20803;-59
2022/08/20 04:38:35;;;;;;;0.90;0.90;;;;;;;20.98;100.00;95028.13;5093488;28;20558;-59
2022/08/20 04:41:18;;;;;;;0.80;0.80;;;;;;;21.07;100.00;95020.72;5093541;28;20443;-60
2022/08/20 04:43:51;;;;;;;2.37;1.47;;;;;;;21.10;100.00;95025.44;5093808;28;20558;-59
2022/08/20 04:46:22;;;;;;;0.80;0.80;;;;;;;21.75;100.00;95024.91;5093265;28;20424;-59
2022/08/20 04:48:50;;;;;;;0.60;0.40;;;;;;;21.53;100.00;94941.84;5093389;28;20500;-59
2022/08/20 04:51:19;;;;;;;2.13;1.23;;;;;;;20.71;100.00;94838.44;5093548;28;20433;-58
2022/08/20 04:53:53;;;;;;;1.00;1.00;;;;;;;21.97;100.00;95021.63;5093404;28;20954;-59
2022/08/20 04:56:23;;;;;;;1.70;1.40;;;;;;;21.95;100.00;95018.50;5093403;28;21018;-59
2022/08/20 04:58:53;;;;;;;0.80;0.80;;;;;;;22.32;100.00;95010.09;5093439;28;20424;-59
2022/08/20 05:01:22;;;;;;;0.50;0.40;;;;;;;21.42;100.00;94925.44;5093462;28;20512;-59
2022/08/20 05:03:53;;;;;;;0.60;0.50;;;;;;;21.48;100.00;94858.53;5093427;28;21093;-59
2022/08/20 05:06:24;;;;;;;0.60;0.43;;;;;;;22.23;100.00;94983.31;5093100;28;20430;-59
2022/08/20 05:08:55;;;;;;;0.50;0.50;;;;;;;22.56;100.00;94999.88;5093171;28;20555;-59
2022/08/20 05:11:24;;;;;;;0.40;0.30;;;;;;;22.73;100.00;94966.31;5093273;28;20452;-59
2022/08/20 05:14:02;;;;;;;0.40;0.30;;;;;;;22.53;100.00;94954.66;5093039;28;20511;-59
2022/08/20 05:16:36;;;;;;;0.83;0.83;;;;;;;23.08;100.00;95009.50;5093124;28;20508;-59
2022/08/20 05:19:07;;;;;;;1.10;0.93;;;;;;;22.87;100.00;95009.81;5092741;28;20964;-59
2022/08/20 05:21:36;;;;;;;0.60;0.40;;;;;;;23.29;100.00;95010.72;5092769;28;20813;-59
2022/08/20 05:24:08;;;;;;;0.60;0.40;;;;;;;23.40;100.00;95010.16;5093224;28;20481;-59
2022/08/20 05:26:37;;;;;;;0.77;0.60;;;;;;;23.48;100.00;95011.88;5092885;28;20489;-60
2022/08/20 05:29:06;;;;;;;6.43;1.23;;;;;;;22.78;100.00;95017.38;5092731;28;20507;-58
2022/08/20 05:31:37;;;;;;;2.30;2.10;;;;;;;21.27;100.00;94874.97;5091912;28;20436;-59
2022/08/20 05:34:08;;;;;;;2.00;1.77;;;;;;;22.34;100.00;95015.97;5092829;28;20424;-59
2022/08/20 05:36:38;;;;;;;2.47;2.27;;;;;;;22.36;100.00;95019.09;5092789;28;20432;-59
2022/08/20 05:39:09;;;;;;;1.40;0.87;;;;;;;22.63;100.00;95008.19;5092831;28;20448;-59
2022/08/20 05:41:37;;;;;;;2.10;2.00;;;;;;;22.63;100.00;94978.47;5092114;28;20527;-58
2022/08/20 05:44:09;;;;;;;1.77;1.67;;;;;;;23.22;100.00;95002.47;5092240;28;20528;-58
2022/08/20 05:46:39;;;;;;;1.20;0.87;;;;;;;23.58;100.00;95000.47;5092713;28;20843;-58
2022/08/20 05:49:08;;;;;;;0.73;0.70;;;;;;;23.61;100.00;94999.72;5092532;28;20825;-57
2022/08/20 05:51:37;;;;;;;1.30;1.23;;;;;;;23.76;100.00;95005.03;5092633;28;20876;-57
2022/08/20 05:54:07;;;;;;;2.83;1.13;;;;;;;23.91;100.00;94993.31;5092675;28;20508;-58
2022/08/20 05:56:37;;;;;;;1.53;1.27;;;;;;;24.27;100.00;94993.91;5092405;28;20522;-58
2022/08/20 05:59:08;;;;;;;3.63;2.47;;;;;;;24.24;100.00;94994.63;5091366;28;20444;-57
2022/08/20 06:01:38;;;;;;;2.63;2.30;;;;;;;24.13;100.00;94996.41;5092189;28;20490;-57
2022/08/20 06:06:55;;;;;;;1.33;1.23;;;;;;;24.60;100.00;94992.09;5092156;28;20854;-57
2022/08/20 06:09:25;;;;;;;0.70;0.70;;;;;;;24.83;100.00;94994.78;5092348;28;20464;-57
2022/08/20 06:12:01;;;;;;;1.20;1.10;;;;;;;24.86;100.00;94998.69;5092075;28;20951;-57
2022/08/20 06:14:30;;;;;;;1.83;1.60;;;;;;;25.10;100.00;94982.72;5091925;28;20424;-57
2022/08/20 06:17:04;;;;;;;1.50;1.40;;;;;;;25.17;100.00;94992.88;5091962;28;20924;-57
2022/08/20 06:19:33;;;;;;;1.33;1.23;;;;;;;25.43;100.00;94994.72;5091634;28;20975;-57
2022/08/20 06:22:03;;;;;;;0.70;0.70;;;;;;;26.03;95.08;94998.88;5091857;28;20463;-58
2022/08/20 06:24:51;;;;;;;4.53;2.50;;;;;;;25.82;92.70;94993.22;5091827;28;20932;-58
2022/08/20 06:27:21;;;;;;;3.33;0.80;;;;;;;26.43;87.32;94987.94;5091918;28;20452;-58
2022/08/20 06:29:50;;;;;;;2.17;1.20;;;;;;;26.26;87.36;94983.16;5092170;28;20511;-59
2022/08/20 06:32:20;;;;;;;1.80;1.70;;;;;;;26.16;88.16;94923.31;5092277;28;20478;-58
2022/08/20 06:35:01;;;;;;;1.47;1.37;;;;;;;26.86;81.88;94985.50;5091777;28;20866;-58
2022/08/20 06:37:32;;;;;;;1.20;1.10;;;;;;;27.04;76.82;94989.13;5091751;28;20459;-59
2022/08/20 06:40:04;;;;;;;1.27;1.17;;;;;;;26.98;80.51;94985.97;5091796;28;20433;-60
2022/08/20 06:42:34;;;;;;;0.80;0.73;;;;;;;26.83;80.75;94992.50;5091741;28;20412;-60
2022/08/20 06:45:04;;;;;;;1.17;1.17;;;;;;;27.41;78.64;94986.94;5092062;28;20420;-55
2022/08/20 06:47:34;;;;;;;1.03;0.93;;;;;;;28.07;76.23;94987.50;5091804;28;20508;-53
2022/08/20 06:50:02;;;;;;;0.87;0.87;;;;;;;28.08;72.11;94984.38;5091921;28;20552;-54
2022/08/20 06:52:30;;;;;;;1.13;0.70;;;;;;;28.81;69.16;94988.25;5092013;28;20882;-53
2022/08/20 06:55:19;;;;;;;4.97;0.90;;;;;;;29.07;62.91;94942.56;5091574;28;20795;-54
2022/08/20 06:57:56;;;;;;;0.40;0.33;;;;;;;29.72;59.41;94977.38;5091823;28;20442;-54
2022/08/20 07:00:26;;;;;;;0.80;0.80;;;;;;;29.28;60.59;94980.69;5092226;28;20424;-55
2022/08/20 07:02:55;;;;;;;1.00;0.83;;;;;;;29.69;57.48;94978.94;5091835;28;20456;-55
2022/08/20 07:05:23;;;;;;;1.73;0.73;;;;;;;29.69;54.32;94973.47;5091927;28;20417;-55
2022/08/20 07:07:52;;;;;;;1.20;1.10;;;;;;;29.74;53.21;94975.78;5091781;28;20438;-55
2022/08/20 07:10:23;;;;;;;1.33;1.23;;;;;;;29.92;53.05;94976.50;5094268;28;20507;-53
2022/08/20 07:12:53;;;;;;;1.63;1.53;;;;;;;29.88;50.93;94970.25;5095591;28;20928;-54
2022/08/20 07:15:24;;;;;;;0.73;0.73;;;;;;;29.97;51.89;94967.09;5095820;28;20514;-54
2022/08/20 07:17:55;;;;;;;0.57;0.50;;;;;;;30.64;50.65;94966.53;5095748;28;20444;-53
2022/08/20 07:20:29;;;;;;;0.83;0.50;;;;;;;30.85;47.84;94971.00;5095456;28;20438;-53
2022/08/20 07:22:57;;;;;;;2.80;2.20;;;;;;;31.41;46.83;94959.44;5095404;28;20973;-53
2022/08/20 07:25:26;;;;;;;0.77;0.63;;;;;;;31.95;44.68;94957.53;5095252;28;20908;-53
2022/08/20 07:28:00;;;;;;;0.67;0.67;;;;;;;31.41;46.20;94956.69;5095283;28;20518;-53
2022/08/20 07:33:25;;;;;;;1.93;1.10;;;;;;;31.77;48.02;94955.06;5095228;28;20438;-55
2022/08/20 07:35:56;;;;;;;0.47;0.47;;;;;;;31.75;46.06;94957.41;5095304;28;20485;-54
2022/08/20 07:38:26;;;;;;;2.93;1.50;;;;;;;31.85;49.20;94958.47;5095220;28;20514;-55
2022/08/20 07:40:57;;;;;;;0.90;0.70;;;;;;;32.08;47.37;94950.28;5095040;28;20444;-56
2022/08/20 07:43:28;;;;;;;2.03;1.83;;;;;;;31.47;43.78;94952.34;5095428;28;20503;-56
2022/08/20 07:45:59;;;;;;;3.03;2.93;;;;;;;32.13;43.90;94947.06;5095135;28;20617;-56
2022/08/20 07:48:29;;;;;;;2.20;1.00;;;;;;;32.45;42.60;94944.59;5095368;28;20446;-59
2022/08/20 07:51:01;;;;;;;1.13;0.83;;;;;;;33.10;42.98;94942.25;5095266;28;20523;-57
2022/08/20 07:53:32;;;;;;;1.17;1.17;;;;;;;32.09;41.68;94953.81;5095022;28;20506;-56
2022/08/20 07:56:06;;;;;;;1.10;1.10;;;;;;;31.99;43.23;94942.59;5094864;28;20432;-57
2022/08/20 07:58:38;;;;;;;1.50;0.80;;;;;;;33.30;41.39;94940.28;5095004;28;20451;-57
2022/08/20 08:01:09;;;;;;;1.20;1.20;;;;;;;32.80;41.29;94943.19;5094696;28;20470;-57
2022/08/20 08:03:38;;;;;;;0.60;0.50;;;;;;;33.39;41.24;94940.50;5095057;28;20420;-56
2022/08/20 08:06:19;;;;;;;1.07;0.90;;;;;;;32.57;40.07;94842.50;5094560;28;20431;-55
2022/08/20 08:09:01;;;;;;;1.17;1.17;;;;;;;33.42;41.02;94925.13;5094609;28;20439;-56
2022/08/20 08:11:31;;;;;;;0.93;0.93;;;;;;;33.84;40.74;94919.50;5095002;28;20498;-55
2022/08/20 08:14:01;;;;;;;0.80;0.77;;;;;;;33.66;40.88;94910.88;5094409;28;20469;-56
2022/08/20 08:16:31;;;;;;;2.70;0.90;;;;;;;33.06;42.12;94927.84;5094726;28;20521;-56
2022/08/20 08:19:00;;;;;;;0.83;0.83;;;;;;;32.86;41.19;94881.13;5094416;28;20475;-56
2022/08/20 08:21:30;;;;;;;1.40;1.30;;;;;;;33.64;43.24;94912.50;5093625;28;20842;-55
2022/08/20 08:23:59;;;;;;;0.80;0.80;;;;;;;34.01;41.08;94908.47;5094350;28;20863;-55
2022/08/20 08:26:28;;;;;;;0.90;0.60;;;;;;;34.51;40.30;94911.56;5094505;28;21176;-52
2022/08/20 08:28:56;;;;;;;0.80;0.80;;;;;;;34.87;40.01;94905.91;5094462;28;20489;-53
2022/08/20 08:31:27;;;;;;;1.47;1.37;;;;;;;33.80;40.57;94855.53;5094105;28;20462;-53
2022/08/20 08:33:55;;;;;;;0.80;0.80;;;;;;;34.38;40.58;94895.00;5094002;28;20515;-53
2022/08/20 08:36:26;;;;;;;0.73;0.73;;;;;;;34.54;39.72;94896.94;5094009;28;20459;-54
2022/08/20 08:38:55;;;;;;;1.20;1.17;;;;;;;34.25;40.77;94893.38;5094045;28;20431;-54
2022/08/20 08:41:30;;;;;;;1.30;1.20;;;;;;;33.96;42.40;94876.00;5094316;28;20786;-54
2022/08/20 08:44:04;;;;;;;1.37;1.20;;;;;;;34.19;41.65;94887.63;5094239;28;20492;-54
2022/08/20 08:46:39;;;;;;;1.43;1.33;;;;;;;34.64;39.91;94890.41;5094310;28;20893;-54
2022/08/20 08:49:12;;;;;;;1.40;1.10;;;;;;;34.62;39.01;94884.56;5093919;28;20467;-54
2022/08/20 08:51:42;;;;;;;1.10;1.00;;;;;;;34.65;39.09;94880.19;5093720;28;20549;-55
2022/08/20 08:54:16;;;;;;;1.27;0.73;;;;;;;35.06;39.04;94881.00;5093562;28;20431;-54
2022/08/20 08:56:44;;;;;;;0.53;0.53;;;;;;;35.63;38.06;94874.59;5094075;28;20487;-55
2022/08/20 08:59:18;;;;;;;0.57;0.57;;;;;;;36.20;35.51;94870.81;5093656;28;20933;-56
2022/08/20 09:01:51;;;;;;;0.50;0.50;;;;;;;36.28;35.43;94872.09;5093714;28;20452;-60
2022/08/20 09:04:27;;;;;;;1.10;0.80;;;;;;;36.34;35.66;94872.31;5093627;28;20190;-61
2022/08/20 09:06:56;;;;;;;0.50;0.50;;;;;;;37.12;34.01;94867.63;5093737;28;20226;-61
2022/08/20 09:09:27;;;;;;;1.33;0.53;;;;;;;37.72;33.72;94868.13;5093717;28;20186;-61
2022/08/20 09:12:01;;;;;;;0.40;0.40;;;;;;;37.73;32.83;94855.81;5093641;28;20630;-60
2022/08/20 09:14:30;;;;;;;0.57;0.57;;;;;;;37.48;33.38;94851.25;5093403;28;20190;-60
2022/08/20 09:16:59;;;;;;;0.60;0.50;;;;;;;37.45;33.61;94852.16;5093432;28;20281;-61
2022/08/20 09:19:28;;;;;;;0.55;0.55;;;;;;;36.97;33.84;94854.75;5093160;28;20219;-61
2022/08/20 09:21:57;;;;;;;1.57;1.20;;;;;;;37.40;32.69;94840.91;5093257;28;20639;-60
2022/08/20 09:24:25;;;;;;;0.50;0.50;;;;;;;37.22;32.96;94800.09;5093522;28;20241;-61
2022/08/20 09:26:54;;;;;;;1.50;1.13;;;;;;;37.93;32.32;94844.38;5093124;28;20262;-62
2022/08/20 09:29:22;;;;;;;0.83;0.70;;;;;;;37.77;32.72;94845.38;5093383;28;20285;-61
2022/08/20 09:31:50;;;;;;;2.77;1.10;;;;;;;37.82;31.83;94832.94;5092850;28;20262;-61
2022/08/20 09:34:21;;;;;;;1.35;1.20;;;;;;;37.02;33.33;94835.63;5093165;28;20218;-61
2022/08/20 09:36:49;;;;;;;1.58;1.05;;;;;;;36.57;34.02;94829.75;5092909;28;20596;-61
2022/08/20 09:39:17;;;;;;;0.47;0.47;;;;;;;36.82;33.66;94824.09;5093361;28;20222;-61
2022/08/20 09:41:46;;;;;;;1.13;0.98;;;;;;;35.62;35.63;94828.94;5092882;28;20240;-61
2022/08/20 09:44:14;;;;;;;1.00;1.00;;;;;;;35.04;37.88;94836.59;5092854;28;20196;-61
2022/08/20 09:46:42;;;;;;;1.00;0.60;;;;;;;35.18;37.95;94824.38;5092963;28;20187;-61
2022/08/20 09:49:11;;;;;;;0.90;0.90;;;;;;;35.35;37.41;94828.56;5092640;28;20217;-60
2022/08/20 09:51:41;;;;;;;1.30;1.27;;;;;;;36.26;36.92;94822.09;5092561;28;20301;-60
2022/08/20 09:54:09;;;;;;;1.27;1.17;;;;;;;36.65;36.89;94822.75;5092654;28;20607;-60
2022/08/20 09:56:38;;;;;;;0.97;0.97;;;;;;;37.18;36.45;94821.59;5092947;28;20270;-60
2022/08/20 09:59:07;;;;;;;0.53;0.53;;;;;;;37.46;37.67;94822.53;5092863;28;20609;-61
2022/08/20 10:01:35;;;;;;;0.63;0.63;;;;;;;38.11;33.16;94808.44;5092432;28;20751;-61
2022/08/20 10:04:04;;;;;;;1.75;0.85;;;;;;;37.86;33.79;94814.22;5092436;28;20655;-61
2022/08/20 10:06:33;;;;;;;1.92;1.83;;;;;;;37.57;32.70;94822.09;5092667;28;20285;-61
2022/08/20 10:09:06;;;;;;;1.63;1.52;;;;;;;37.26;33.58;94817.34;5092963;28;20190;-62
2022/08/20 10:11:35;;;;;;;0.73;0.73;;;;;;;37.71;33.26;94791.09;5092255;28;20253;-61
2022/08/20 10:14:03;;;;;;;1.50;1.50;;;;;;;38.56;32.50;94805.72;5092567;28;20216;-62
2022/08/20 10:16:32;;;;;;;0.95;0.85;;;;;;;38.56;31.67;94783.53;5092515;28;20219;-62
2022/08/20 10:19:00;;;;;;;0.93;0.82;;;;;;;38.61;31.07;94796.00;5092082;28;20257;-63
2022/08/20 10:21:30;;;;;;;1.00;0.95;;;;;;;38.07;31.69;94793.97;5092147;28;20702;-62
2022/08/20 10:24:03;;;;;;;1.58;1.48;;;;;;;36.77;33.77;94794.31;5092136;28;20796;-62
2022/08/20 10:26:33;;;;;;;0.60;0.60;;;;;;;38.35;32.05;94787.25;5092362;28;20230;-62
2022/08/20 10:29:02;;;;;;;0.50;0.50;;;;;;;38.67;33.96;94775.53;5092428;28;20222;-62
2022/08/20 10:31:30;;;;;;;0.70;0.70;;;;;;;39.15;31.81;94770.22;5092100;28;20297;-62
2022/08/20 10:33:59;;;;;;;1.05;0.88;;;;;;;39.22;30.33;94770.69;5092230;28;20197;-62
2022/08/20 10:36:27;;;;;;;0.40;0.38;;;;;;;39.80;30.93;94766.72;5091950;28;20195;-62
2022/08/20 10:38:56;;;;;;;0.77;0.77;;;;;;;39.46;31.13;94773.50;5092164;28;20283;-61
2022/08/20 10:41:24;;;;;;;1.33;1.23;;;;;;;38.76;30.08;94766.50;5092107;28;20638;-61
2022/08/20 10:43:54;;;;;;;0.82;0.82;;;;;;;39.39;29.46;94764.78;5091196;28;20681;-62
2022/08/20 10:46:22;;;;;;;0.65;0.65;;;;;;;39.46;30.28;94747.78;5092053;28;20274;-62
2022/08/20 10:48:51;;;;;;;1.23;0.63;;;;;;;38.97;29.27;94759.19;5091456;28;20284;-62
2022/08/20 10:51:19;;;;;;;0.70;0.70;;;;;;;39.89;29.64;94747.25;5091459;28;20285;-62
2022/08/20 10:53:59;;;;;;;1.80;1.45;;;;;;;38.46;29.66;94750.78;5091797;28;20555;-62
2022/08/20 10:56:28;;;;;;;1.33;1.23;;;;;;;37.91;31.13;94703.72;5091872;28;20269;-62
2022/08/20 10:58:58;;;;;;;0.55;0.55;;;;;;;39.31;30.28;94740.16;5092192;28;20194;-62
2022/08/20 11:01:26;;;;;;;1.15;1.05;;;;;;;39.10;29.02;94741.13;5091596;28;20192;-62
2022/08/20 11:04:00;;;;;;;0.60;0.60;;;;;;;39.32;29.80;94743.69;5091878;28;20197;-62
2022/08/20 11:06:28;;;;;;;1.23;0.70;;;;;;;39.44;29.34;94733.63;5091342;28;20230;-62
2022/08/20 11:08:57;;;;;;;0.80;0.80;;;;;;;38.87;29.29;94733.50;5091119;28;20283;-62
2022/08/20 11:11:25;;;;;;;0.90;0.90;;;;;;;38.44;29.98;94736.63;5091536;28;20528;-63
2022/08/20 11:13:53;;;;;;;4.53;1.02;;;;;;;37.55;31.67;94736.81;5090764;28;20230;-62
2022/08/20 11:16:25;;;;;;;0.43;0.43;;;;;;;38.07;31.61;94738.63;5091063;28;20632;-62
2022/08/20 11:18:53;;;;;;;0.98;0.98;;;;;;;38.05;31.26;94727.25;5091107;28;20256;-53
2022/08/20 11:21:21;;;;;;;5.03;0.60;;;;;;;38.59;30.17;94726.47;5091070;28;20290;-53
2022/08/20 11:23:50;;;;;;;0.60;0.57;;;;;;;39.42;30.31;94717.44;5091443;28;20633;-54
2022/08/20 11:26:22;;;;;;;0.60;0.60;;;;;;;39.29;29.17;94701.00;5091373;28;20634;-53
2022/08/20 11:28:50;;;;;;;1.30;1.25;;;;;;;38.72;30.08;94708.44;5091548;28;20271;-54
2022/08/20 11:31:19;;;;;;;0.77;0.77;;;;;;;38.26;31.07;94704.16;5091687;28;20203;-53
2022/08/20 11:33:49;;;;;;;1.33;0.70;;;;;;;38.12;30.96;94693.72;5091478;28;20554;-53
2022/08/20 11:36:17;;;;;;;1.02;0.90;;;;;;;37.99;31.52;94679.28;5091200;28;20206;-53
2022/08/20 11:38:45;;;;;;;0.80;0.80;;;;;;;38.08;32.42;94677.28;5090573;28;20266;-54
2022/08/20 11:41:14;;;;;;;1.02;1.02;;;;;;;37.70;32.07;94679.69;5091426;28;20228;-53
2022/08/20 11:43:43;;;;;;;0.90;0.90;;;;;;;37.47;32.29;94669.97;5091067;28;20189;-53
2022/08/20 11:46:32;;;;;;;0.70;0.70;;;;;;;38.72;31.92;94668.88;5091280;28;20199;-53
2022/08/20 11:49:02;;;;;;;0.80;0.80;;;;;;;38.64;30.66;94668.44;5091347;28;20620;-53
2022/08/20 11:51:30;;;;;;;0.85;0.85;;;;;;;38.41;31.10;94671.09;5091433;28;20231;-54
2022/08/20 11:54:17;;;;;;;0.57;0.57;;;;;;;38.76;31.39;94658.44;5091273;28;20193;-54